Quenames — WTU9038 — position and weather

sailwx.info

Track history (hours):
 
Tides and Currents Weather Stations Pressure Air Temp Water Temp Dewpoint Dewpoint Depression Visibility Wind Speed Wind Dir Waves Ship Positions

Quenames

Owner: BOSTON MARINE TRANSPORT INC, EAST BOSTON, MA. More information available from US FCC via Universal Licensing System and Coast Guard Vessel Documentation Center.

Last reported at 2016-Apr-28 01:25 UTC. Time now 2016-Apr-29 15:49 UTC.
Position N 32°07' W 079°54'.

Length 23 m; draft 3 m.

Type: Tug. MMSI: 367022790.

Date/timePositionNaut miles runAvg speedWind from/ knotsBaromVisibWave heightAir tempDewpointWater temp
2016-Apr-28 01:25N 32°07' W 079°54'7 6.0
2016-Apr-28 00:11N 32°13' W 079°49'4 6.1
2016-Apr-27 23:32N 32°16' W 079°46'6 6.1
2016-Apr-27 22:33N 32°21' W 079°41'7 6.1
2016-Apr-27 21:22N 32°26' W 079°36'  
2016-Apr-24 01:33N 39°33' W 074°06'7 6.5
2016-Apr-24 00:32N 39°39' W 074°02'6 6.5
2016-Apr-23 23:33N 39°44' W 073°59'6 6.4
2016-Apr-23 22:33N 39°51' W 073°58'39 6.5
2016-Apr-23 16:33N 40°30' W 073°57'7 6.8
2016-Apr-23 15:33N 40°35' W 074°02'3 2.9
2016-Apr-23 14:33N 40°38' W 074°04'2 2.4
2016-Apr-23 13:33N 40°39' W 074°07'0 0.0
2016-Apr-23 12:32N 40°39' W 074°07'0 0.0
2016-Apr-23 11:33N 40°39' W 074°07'0 0.0
2016-Apr-23 10:33N 40°39' W 074°07'0 0.0
2016-Apr-23 09:33N 40°39' W 074°07'0 0.0
2016-Apr-23 08:31N 40°39' W 074°07'0 0.0
2016-Apr-23 07:27N 40°39' W 074°07'0 0.0
2016-Apr-23 06:33N 40°39' W 074°07'0 0.0
2016-Apr-23 05:33N 40°39' W 074°07'0 0.0
2016-Apr-23 04:33N 40°39' W 074°07'0 0.0
2016-Apr-23 03:33N 40°39' W 074°07'0 0.0
2016-Apr-23 02:33N 40°39' W 074°07'0 0.0
2016-Apr-23 01:33N 40°39' W 074°07'0 0.0
2016-Apr-23 00:33N 40°39' W 074°07'3 2.6
2016-Apr-22 23:33N 40°39' W 074°10'2 0.5
2016-Apr-22 19:32N 40°37' W 074°12'2 2.0
2016-Apr-22 18:33N 40°39' W 074°10'2 1.6
2016-Apr-22 17:33N 40°39' W 074°08'1 1.0
2016-Apr-22 16:33N 40°39' W 074°07'0 0.0
2016-Apr-22 15:33N 40°39' W 074°07'0 0.0
2016-Apr-22 14:31N 40°39' W 074°07'0 0.0
2016-Apr-22 13:33N 40°39' W 074°07'3 3.1
2016-Apr-22 12:32N 40°39' W 074°11'2 0.1
2016-Apr-21 07:08N 40°37' W 074°12'4 7.3
2016-Apr-21 06:33N 40°39' W 074°07'8 8.4
2016-Apr-21 05:33N 40°46' W 074°01'1 0.1
2016-Apr-20 04:32N 40°47' W 073°60'5 5.6
2016-Apr-20 03:33N 40°42' W 074°02'6 6.0
2016-Apr-20 02:33N 40°39' W 074°09'3 0.2
2016-Apr-19 07:27N 40°37' W 074°12'6 6.7
2016-Apr-19 06:34N 40°39' W 074°05'0 0.0
2016-Apr-19 05:33N 40°39' W 074°05'0 0.0
2016-Apr-19 04:33N 40°39' W 074°05'0 0.0
2016-Apr-19 03:33N 40°39' W 074°05'0 0.0
2016-Apr-19 02:33N 40°39' W 074°05'0 0.0
2016-Apr-19 01:33N 40°39' W 074°05'0 0.0
2016-Apr-19 00:33N 40°39' W 074°05'0 0.0
2016-Apr-18 23:33N 40°39' W 074°05'0 0.0
2016-Apr-18 22:33N 40°39' W 074°05'0 0.0
2016-Apr-18 21:33N 40°39' W 074°05'0 0.0
2016-Apr-18 20:33N 40°39' W 074°05'0 0.0
2016-Apr-18 19:33N 40°39' W 074°05'0 0.0
2016-Apr-18 18:33N 40°39' W 074°05'0 0.0
2016-Apr-18 17:33N 40°39' W 074°05'0 0.0
2016-Apr-18 16:33N 40°39' W 074°05'0 0.0
2016-Apr-18 15:33N 40°39' W 074°05'0 0.0
2016-Apr-18 14:33N 40°39' W 074°05'0 0.0
2016-Apr-18 13:33N 40°39' W 074°05'0 0.0
2016-Apr-18 12:33N 40°39' W 074°05'0 0.2
2016-Apr-18 11:33N 40°39' W 074°05'4 3.9
2016-Apr-18 10:32N 40°41' W 074°10'0 0.1
2016-Apr-18 09:07N 40°41' W 074°09'0 0.0
2016-Apr-18 07:33N 40°41' W 074°09'0 0.0
2016-Apr-18 06:33N 40°41' W 074°09'0 0.0
2016-Apr-18 05:33N 40°41' W 074°09'0 0.0
2016-Apr-18 04:33N 40°41' W 074°09'0 0.0
2016-Apr-18 03:33N 40°41' W 074°09'0 0.0
2016-Apr-18 02:33N 40°41' W 074°09'0 0.0
2016-Apr-18 01:33N 40°41' W 074°09'  
Track history (hours):
 
Tides and Currents Weather Stations Pressure Air Temp Water Temp Dewpoint Dewpoint Depression Visibility Wind Speed Wind Dir Waves Ship Positions

Quenames

Owner: BOSTON MARINE TRANSPORT INC, EAST BOSTON, MA. More information available from US FCC via Universal Licensing System and Coast Guard Vessel Documentation Center.

Last reported at 2016-Apr-28 01:25 UTC. Time now 2016-Apr-29 15:49 UTC.
Position N 32°07' W 079°54'.

Length 23 m; draft 3 m.

Type: Tug. MMSI: 367022790.

Date/timePositionNaut miles runAvg speedWind from/ knotsBaromVisibWave heightAir tempDewpointWater temp
2016-Apr-28 01:25N 32°07' W 079°54'7 6.0
2016-Apr-28 00:11N 32°13' W 079°49'4 6.1
2016-Apr-27 23:32N 32°16' W 079°46'6 6.1
2016-Apr-27 22:33N 32°21' W 079°41'7 6.1
2016-Apr-27 21:22N 32°26' W 079°36'  
2016-Apr-24 01:33N 39°33' W 074°06'7 6.5
2016-Apr-24 00:32N 39°39' W 074°02'6 6.5
2016-Apr-23 23:33N 39°44' W 073°59'6 6.4
2016-Apr-23 22:33N 39°51' W 073°58'39 6.5
2016-Apr-23 16:33N 40°30' W 073°57'7 6.8
2016-Apr-23 15:33N 40°35' W 074°02'3 2.9
2016-Apr-23 14:33N 40°38' W 074°04'2 2.4
2016-Apr-23 13:33N 40°39' W 074°07'0 0.0
2016-Apr-23 12:32N 40°39' W 074°07'0 0.0
2016-Apr-23 11:33N 40°39' W 074°07'0 0.0
2016-Apr-23 10:33N 40°39' W 074°07'0 0.0
2016-Apr-23 09:33N 40°39' W 074°07'0 0.0
2016-Apr-23 08:31N 40°39' W 074°07'0 0.0
2016-Apr-23 07:27N 40°39' W 074°07'0 0.0
2016-Apr-23 06:33N 40°39' W 074°07'0 0.0
2016-Apr-23 05:33N 40°39' W 074°07'0 0.0
2016-Apr-23 04:33N 40°39' W 074°07'0 0.0
2016-Apr-23 03:33N 40°39' W 074°07'0 0.0
2016-Apr-23 02:33N 40°39' W 074°07'0 0.0
2016-Apr-23 01:33N 40°39' W 074°07'0 0.0
2016-Apr-23 00:33N 40°39' W 074°07'3 2.6
2016-Apr-22 23:33N 40°39' W 074°10'2 0.5
2016-Apr-22 19:32N 40°37' W 074°12'2 2.0
2016-Apr-22 18:33N 40°39' W 074°10'2 1.6
2016-Apr-22 17:33N 40°39' W 074°08'1 1.0
2016-Apr-22 16:33N 40°39' W 074°07'0 0.0
2016-Apr-22 15:33N 40°39' W 074°07'0 0.0
2016-Apr-22 14:31N 40°39' W 074°07'0 0.0
2016-Apr-22 13:33N 40°39' W 074°07'3 3.1
2016-Apr-22 12:32N 40°39' W 074°11'2 0.1
2016-Apr-21 07:08N 40°37' W 074°12'4 7.3
2016-Apr-21 06:33N 40°39' W 074°07'8 8.4
2016-Apr-21 05:33N 40°46' W 074°01'1 0.1
2016-Apr-20 04:32N 40°47' W 073°60'5 5.6
2016-Apr-20 03:33N 40°42' W 074°02'6 6.0
2016-Apr-20 02:33N 40°39' W 074°09'3 0.2
2016-Apr-19 07:27N 40°37' W 074°12'6 6.7
2016-Apr-19 06:34N 40°39' W 074°05'0 0.0
2016-Apr-19 05:33N 40°39' W 074°05'0 0.0
2016-Apr-19 04:33N 40°39' W 074°05'0 0.0
2016-Apr-19 03:33N 40°39' W 074°05'0 0.0
2016-Apr-19 02:33N 40°39' W 074°05'0 0.0
2016-Apr-19 01:33N 40°39' W 074°05'0 0.0
2016-Apr-19 00:33N 40°39' W 074°05'0 0.0
2016-Apr-18 23:33N 40°39' W 074°05'0 0.0
2016-Apr-18 22:33N 40°39' W 074°05'0 0.0
2016-Apr-18 21:33N 40°39' W 074°05'0 0.0
2016-Apr-18 20:33N 40°39' W 074°05'0 0.0
2016-Apr-18 19:33N 40°39' W 074°05'0 0.0
2016-Apr-18 18:33N 40°39' W 074°05'0 0.0
2016-Apr-18 17:33N 40°39' W 074°05'0 0.0
2016-Apr-18 16:33N 40°39' W 074°05'0 0.0
2016-Apr-18 15:33N 40°39' W 074°05'0 0.0
2016-Apr-18 14:33N 40°39' W 074°05'0 0.0
2016-Apr-18 13:33N 40°39' W 074°05'0 0.0
2016-Apr-18 12:33N 40°39' W 074°05'0 0.2
2016-Apr-18 11:33N 40°39' W 074°05'4 3.9
2016-Apr-18 10:32N 40°41' W 074°10'0 0.1
2016-Apr-18 09:07N 40°41' W 074°09'0 0.0
2016-Apr-18 07:33N 40°41' W 074°09'0 0.0
2016-Apr-18 06:33N 40°41' W 074°09'0 0.0
2016-Apr-18 05:33N 40°41' W 074°09'0 0.0
2016-Apr-18 04:33N 40°41' W 074°09'0 0.0
2016-Apr-18 03:33N 40°41' W 074°09'0 0.0
2016-Apr-18 02:33N 40°41' W 074°09'0 0.0
2016-Apr-18 01:33N 40°41' W 074°09'  

Dump ship's entire track history